Timeline UpdatesTrip UpdatesNews PostsPvt PostsTravel TipsAdmin PostsConv PostsFollowed PostsChat RequestsBlog PostsPNR Posts

Disclaimer
Search
 
 
Wed Apr 16, 2014 09:51:43 ISTHomeTrainsΣChainsAtlasPNRForumGalleryNewsFAQTripsMembersLoginFeedback
No Recent News for this Train
Other Trains in the News **new
Latest...
.
Sun Mar 09, 2014 (12:08PM)
⇐ Return Journey: Train# 12722

12721/Dakshin SF Express

Jan 01 2014 (10:18PM)
Change Departure Station:
Change Arrival Station:
Post a Train Travel TipPost a Train Travel Tip **new
Post a Comment/Question/Picture/VideoPost a Comment/Question/Picture/Video
Pantry/Catering
✓ Pantry Car Avbl
✓ Catering Avbl
RSA - Rake Sharing
Rake/Coach Composition
From HYB to KZJ, 12721 Dakshin Exp; LOCO(LGD-WAP7)-SLRD-A2-B2-PC-S8-S9-S10-S11-S12-S13-S14-GS-GS-GS-GS-SLR; From KZJ to NZM, 12721 Dakshin Exp; LOCO(LGD-WAP7)-SLR-S4-S5-S6-B1-A1-SLRD-A2-B2-PC-S8-S9-S10-S11-S12-S13-S14-GS-GS-GS-GS-SLR
Loco
Loco In-Charge :- LGD WAP-7 / LGD WAP-4
News    PNR    Forum    Time-Table    Availability    Fare Chart    Map    Arr/Dep History    Trips    Gallery    ΣChains    X/O    Timeline    
Travel Time: 0h 20m    0 halts    Distance: 9 km    Avg Speed: 27 km/hr
Type: SuperFast
Zone: SCR/South Central
Departs @ 22:30 (Avg 1m late)
Platform# 4
SMTWTFS
Hyderabad Deccan Nampally/HYB 
Arrives @ 22:50 (Avg 8m late)
Platform# 1
SMTWTFS
Secunderabad Junction/SC 

0 halts. 6 intermediate Stations between Hyderabad Deccan Nampally and Secunderabad Junction

Show ALL intermediate Stations  Show Old Time-Table

#CodeStation NameX/OArrivesAvgDepartsAvgHaltPFDay#KmSpeedElevZoneAddress
1HYB»Hyderabad Deccan Nampally (6)»  -22:30+1410.028510mSCRHyderabad, Andhra Pradesh
2SC•Secunderabad Junction (10)•XO  22:50+822:55+125m119.279539mSCRSecunderabad 500003, Andhra Pradesh
3BGBhongir (3)  23:30+3623:40+2810m1155.697455mSCRBhongir, Andhra Pradesh
4ZNJangaon (2)  00:03+3400:05+332m2292.944380mSCRRly Stn Rd. Jangaon, Andhra Pradesh
5KZJKazipet Junction (3)X  01:10+901:30+2320m12140.993292mSCRKazipet, Andhra Pradesh
6JMKTJamikunta (2)X  01:53+4201:55+432m12176.495236mSCRJammikunta, Andhra Pradesh
7PDPLPeddapalli Junction (2)O  02:20+4602:22+462m12215.950228mSCRPeddapalli, Andhra Pradesh
8RDMRamagundam (3)O  02:43+3902:45+392m--2233.563170mSCRKarimnagar Dist. Ph : 08728 - 255237, Andhra Pradesh
9MCIManchiryal (3)X  02:58+4103:00+402m12247.266159mSCRMancherial. Ph : 08736 - 254445, Andhra Pradesh
10BPABellampalli (3)X  03:18+4103:20+412m12267.161205mSCRBelampalli Tel:.08735 223298, Andhra Pradesh
11SKZRSirpur Kaghaznagar (3)X  03:58+1704:00+172m12305.552181mSCRKaghaznagar, Andhra Pradesh
12BPQBalharshah Junction (5)X  05:20+1205:30+1410m--2375.343188mCRBallarpur. Ph : 07172 - 240341, Maharashtra
13CDChandrapur Maharashtra  05:49+1605:50+181m--2389.063194mCRChandrapur 442401, Maharashtra
14BUXBhandak (5)  06:13+1706:14+181m--2413.363207mCRChandrapur, Maharashtra
15WRRWaroraX  06:35+2006:36+211m--2435.478214mCRWarora, Maharashtra
16HGTHinganghat  07:06+2107:07+221m--2474.544228mCRHinganghat, Maharashtra
17SEGMSewagram Junction (5)  07:52+1007:53+131m32507.676264mCRWardha, Maharashtra
18SNISindi (2)  08:16+1408:17+151m--2536.977258mCRWardha, Maharashtra
19AJNIAjni (3)  08:51+1408:52+151m12580.88310mCRNagpur 440003, Maharashtra
20NGPNagpur Junction (9)X  09:15+709:25+1010m12583.870314mCRNagpur 440001, Maharashtra
21KATLKatol (2)  10:17+1210:18+131m--2644.760415mCRKatol, Maharashtra
22NRKRNarkher Junction (3)X  10:43+1110:44+111m--2669.861411mCRNarkher, Maharashtra
23PARPandhurna (2)  11:02+1011:03+131m--2688.261481mCRDistt: Chhindwara, Madhya Pradesh
24MTYMultai (2)X  11:43+1511:45+142m--2729.065762mCRMultai, Madhya Pradesh
25AMLAAmla Junction (5)O  12:06+1212:08+132m--2751.872733mCRAmla Distt. Betul, Madhya Pradesh
26BZUBetul (3)X  12:27+1412:29+152m--2774.753644mCRBetul, Madhya Pradesh
27GDYAGhoradongri (3)X  13:10+1313:12+132m12810.645410mCRBetul, Madhya Pradesh
28ETItarsi Junction (7)  14:45+514:55+910m12881.057329mWCRItarsi 461111, Madhya Pradesh
29HBDHoshangabad (4)  15:14+1215:15+131m--2899.163308mWCRHoshangabad, Madhya Pradesh
30HBJBhopal HabibGanj (5)X  16:19+3716:20+381m--2966.415496mWCRHabibGanj, Madhya Pradesh
31BPLBhopal Junction (6)X  16:45+3016:50+325m22972.797497mWCRBhopal, Madhya Pradesh
32BHSVidisha (3)  17:23+3917:24+401m121026.279432mWCRVidisha, Madhya Pradesh
33BAQGanj Basoda (4)X  17:54+4017:55+401m121065.574416mWCRVidisha, Madhya Pradesh
34MABAMandi Bamora (3)X  18:18+3718:19+391m121094.025413mWCRState Highway 14, Madhya Pradesh
35BINABina Junction (5)X  19:00+2419:05+245m321111.371414mWCRJn Pt - KATNI/GUNA/ BPL/JHS, Madhya Pradesh
36LARLalitpur (3)X  19:58+3219:59+331m321174.288373mNCRLalitpur, Uttar Pradesh
37BABBabina (3)X  20:43+3720:44+381m221239.045285mNCRBabina, Uttar Pradesh
38JHSJhansi Junction (7)X  21:18+3321:28+3510m421264.565259mNCRJhansi, Uttar Pradesh
39DAADatia (2)X21:51+3821:52+391m--21289.579264mNCRDatia, Madhya Pradesh
40GWLGwalior Junction (4)  22:47+4722:52+475m221362.289214mNCRGwalior, Madhya Pradesh
41MRAMorena (3)  23:18+5023:19+501m221400.855176mNCRMorena, Madhya Pradesh
42AGCAgra Cantt. (6)XO  00:45+3400:50+385m231480.275174mNCRAgra, Uttar Pradesh
43MTJMathura Junction (10)X  01:33+4601:38+465m231533.962179mNCRMathura, Uttar Pradesh
44BVHBallabgarh (5)O  03:19+2403:20+261m331639.048203mNRFaridabad, Haryana
45FDBFaridabad (4)  03:30+2703:33+253m231647.146206mNRFaridabad, Haryana
46NZMDelhi Hazrat Nizamuddin (7)  04:00+23-631667.8-209mNRNizamuddin East/Sarai KaleKhan Bus Terminal, Delhi NCT
Scroll to Top
Scroll to Bottom